createdAt,value
2022-08-09T00:00:58.844Z,100.00
2022-08-09T00:04:03.774Z,100.00
2022-08-09T00:06:17.934Z,100.00
2022-08-09T00:08:53.279Z,100.00
2022-08-09T00:11:27.770Z,100.00
2022-08-09T00:14:21.808Z,100.00
2022-08-09T00:16:57.009Z,100.00
2022-08-09T00:19:25.190Z,100.00
2022-08-09T00:21:57.042Z,100.00
2022-08-09T00:24:27.719Z,100.00
2022-08-09T00:26:57.469Z,100.00
2022-08-09T00:30:10.036Z,100.00
2022-08-09T00:32:25.274Z,100.00
2022-08-09T00:34:56.038Z,100.00
2022-08-09T00:37:24.230Z,100.00
2022-08-09T00:40:13.195Z,100.00
2022-08-09T00:44:19.578Z,100.00
2022-08-09T00:45:30.665Z,100.00
2022-08-09T00:48:03.517Z,100.00
2022-08-09T00:50:31.927Z,100.00
2022-08-09T00:53:00.341Z,100.00
2022-08-09T00:56:04.880Z,100.00
2022-08-09T00:58:30.522Z,100.00
2022-08-09T01:01:00.509Z,100.00
2022-08-09T01:03:40.826Z,100.00
2022-08-09T01:06:19.932Z,100.00
2022-08-09T01:08:57.441Z,100.00
2022-08-09T01:11:41.916Z,100.00
2022-08-09T01:14:28.293Z,100.00
2022-08-09T01:17:02.234Z,100.00
2022-08-09T01:19:51.889Z,100.00
2022-08-09T01:22:54.758Z,100.00
2022-08-09T01:25:37.377Z,100.00
2022-08-09T01:28:11.504Z,100.00
2022-08-09T01:30:51.544Z,100.00
2022-08-09T01:33:23.861Z,100.00
2022-08-09T01:35:55.071Z,100.00
2022-08-09T01:38:31.054Z,100.00
2022-08-09T01:41:06.011Z,100.00
2022-08-09T01:43:42.092Z,100.00
2022-08-09T01:46:25.305Z,100.00
2022-08-09T01:49:00.238Z,100.00
2022-08-09T01:51:42.849Z,100.00
2022-08-09T01:54:13.874Z,100.00
2022-08-09T01:56:51.539Z,100.00
2022-08-09T01:59:23.121Z,100.00
2022-08-09T02:01:59.576Z,100.00
2022-08-09T02:04:30.179Z,100.00
2022-08-09T02:08:34.655Z,100.00
2022-08-09T02:10:06.890Z,100.00
2022-08-09T02:12:36.200Z,100.00
2022-08-09T02:15:07.680Z,100.00
2022-08-09T02:18:00.095Z,100.00
2022-08-09T02:20:32.586Z,100.00
2022-08-09T02:23:07.335Z,100.00
2022-08-09T02:25:42.752Z,100.00
2022-08-09T02:28:20.638Z,100.00
2022-08-09T02:30:56.786Z,100.00
2022-08-09T02:33:38.371Z,100.00
2022-08-09T02:36:22.434Z,100.00
2022-08-09T02:38:56.338Z,100.00
2022-08-09T02:41:28.206Z,100.00
2022-08-09T02:43:59.462Z,100.00
2022-08-09T02:46:30.486Z,100.00
2022-08-09T02:49:04.477Z,100.00
2022-08-09T02:51:40.229Z,100.00
2022-08-09T02:54:13.819Z,100.00
2022-08-09T02:56:48.689Z,100.00
2022-08-09T02:59:26.370Z,100.00
2022-08-09T03:02:12.289Z,100.00
2022-08-09T03:04:46.214Z,100.00
2022-08-09T03:07:19.896Z,100.00
2022-08-09T03:09:56.232Z,100.00
2022-08-09T03:12:25.975Z,100.00
2022-08-09T03:14:55.333Z,100.00
2022-08-09T03:17:27.126Z,100.00
2022-08-09T03:20:00.425Z,100.00
2022-08-09T03:22:32.847Z,100.00
2022-08-09T03:25:26.888Z,100.00
2022-08-09T03:28:00.884Z,100.00
2022-08-09T03:30:33.514Z,100.00
2022-08-09T03:33:17.701Z,100.00
2022-08-09T03:36:12.282Z,100.00
2022-08-09T03:38:42.071Z,100.00
2022-08-09T03:41:15.037Z,100.00
2022-08-09T03:44:03.472Z,100.00
2022-08-09T03:46:33.589Z,100.00
2022-08-09T03:49:08.686Z,100.00
2022-08-09T03:51:57.382Z,100.00
2022-08-09T03:54:31.307Z,100.00
2022-08-09T03:57:03.223Z,100.00
2022-08-09T03:59:53.609Z,100.00
2022-08-09T04:02:26.986Z,100.00
2022-08-09T04:05:01.372Z,100.00
2022-08-09T04:07:53.050Z,100.00
2022-08-09T04:10:29.336Z,100.00
2022-08-09T04:13:00.759Z,100.00
2022-08-09T04:15:52.460Z,100.00
2022-08-09T04:18:19.225Z,100.00
2022-08-09T04:20:49.358Z,100.00
2022-08-09T04:23:18.021Z,100.00
2022-08-09T04:25:53.344Z,100.00
2022-08-09T04:28:34.079Z,100.00
2022-08-09T04:31:09.333Z,100.00
2022-08-09T04:33:47.153Z,100.00
2022-08-09T04:36:24.324Z,100.00
2022-08-09T04:38:52.948Z,100.00
2022-08-09T04:41:23.374Z,100.00
2022-08-09T04:44:05.962Z,100.00
2022-08-09T04:46:38.035Z,100.00
2022-08-09T04:49:40.173Z,100.00
2022-08-09T04:52:21.992Z,100.00
2022-08-09T04:54:54.626Z,100.00
2022-08-09T04:57:24.047Z,100.00
2022-08-09T04:59:55.730Z,100.00
2022-08-09T05:02:27.404Z,100.00
2022-08-09T05:04:59.258Z,100.00
2022-08-09T05:07:39.858Z,100.00
2022-08-09T05:10:13.101Z,100.00
2022-08-09T05:12:41.514Z,100.00
2022-08-09T05:15:11.697Z,100.00
2022-08-09T05:18:50.798Z,100.00
2022-08-09T05:20:41.317Z,100.00
2022-08-09T05:23:54.183Z,100.00
2022-08-09T05:25:59.397Z,100.00
2022-08-09T05:28:27.761Z,100.00
2022-08-09T05:30:56.060Z,100.00
2022-08-09T05:33:32.702Z,100.00
2022-08-09T05:36:02.197Z,100.00
2022-08-09T05:38:31.971Z,100.00
2022-08-09T05:41:00.349Z,99.82
2022-08-09T05:43:29.137Z,99.69
2022-08-09T05:46:00.927Z,99.03
2022-08-09T05:48:33.125Z,98.69
2022-08-09T05:51:42.311Z,98.16
2022-08-09T05:53:57.482Z,97.74
2022-08-09T05:56:27.076Z,97.11
2022-08-09T05:58:58.485Z,97.23
2022-08-09T06:01:33.558Z,97.19
2022-08-09T06:04:05.843Z,97.07
2022-08-09T06:06:37.788Z,96.49
2022-08-09T06:09:22.960Z,95.72
2022-08-09T06:11:57.331Z,94.31
2022-08-09T06:14:26.710Z,95.08
2022-08-09T06:16:57.277Z,93.83
2022-08-09T06:19:27.710Z,93.40
2022-08-09T06:21:58.765Z,92.35
2022-08-09T06:24:28.952Z,91.39
2022-08-09T06:26:57.605Z,90.12
2022-08-09T06:29:26.999Z,89.54
2022-08-09T06:32:08.557Z,86.86
2022-08-09T06:34:37.990Z,87.12
2022-08-09T06:37:09.949Z,86.98
2022-08-09T06:39:57.975Z,86.84
2022-08-09T06:42:28.469Z,85.83
2022-08-09T06:45:00.174Z,85.10
2022-08-09T06:47:39.903Z,84.95
2022-08-09T06:50:16.746Z,85.03
2022-08-09T06:52:48.815Z,83.13
2022-08-09T06:55:23.031Z,82.33
2022-08-09T06:58:02.623Z,82.60
2022-08-09T07:00:57.227Z,80.66
2022-08-09T07:03:28.241Z,79.66
2022-08-09T07:06:04.670Z,78.49
2022-08-09T07:08:37.045Z,77.97
2022-08-09T07:11:07.305Z,76.15
2022-08-09T07:13:45.130Z,75.51
2022-08-09T07:16:39.338Z,75.06
2022-08-09T07:19:15.707Z,72.88
2022-08-09T07:21:55.778Z,75.73
2022-08-09T07:24:32.389Z,73.51
2022-08-09T07:27:33.072Z,73.65
2022-08-09T07:30:00.146Z,73.71
2022-08-09T07:32:33.431Z,70.13
2022-08-09T07:35:10.243Z,70.34
2022-08-09T07:37:44.154Z,67.43
2022-08-09T07:40:18.283Z,66.49
2022-08-09T07:42:55.941Z,63.57
2022-08-09T07:45:37.284Z,65.00
2022-08-09T07:48:07.477Z,64.80
2022-08-09T07:50:53.077Z,65.44
2022-08-09T07:54:06.829Z,63.58
2022-08-09T07:56:28.222Z,63.18
2022-08-09T07:59:00.689Z,62.60
2022-08-09T08:01:34.108Z,61.90
2022-08-09T08:04:04.084Z,62.56
2022-08-09T08:06:45.435Z,61.80
2022-08-09T08:09:41.118Z,60.64
2022-08-09T08:12:27.955Z,61.41
2022-08-09T08:14:59.641Z,61.45
2022-08-09T08:17:53.151Z,61.20
2022-08-09T08:20:16.319Z,58.29
2022-08-09T08:22:48.544Z,60.18
2022-08-09T08:25:17.241Z,58.99
2022-08-09T08:27:49.837Z,57.97
2022-08-09T08:30:19.967Z,58.58
2022-08-09T08:32:53.973Z,59.12
2022-08-09T08:35:22.976Z,57.80
2022-08-09T08:37:59.691Z,56.65
2022-08-09T08:40:33.537Z,57.50
2022-08-09T08:43:02.835Z,56.18
2022-08-09T08:45:51.667Z,54.87
2022-08-09T08:48:29.050Z,57.71
2022-08-09T08:50:58.046Z,55.56
2022-08-09T08:53:32.173Z,54.41
2022-08-09T08:56:06.023Z,54.95
2022-08-09T08:58:35.929Z,54.15
2022-08-09T09:01:09.200Z,55.39
2022-08-09T09:03:50.787Z,54.34
2022-08-09T09:06:21.582Z,52.93
2022-08-09T09:08:52.448Z,53.34
2022-08-09T09:11:21.878Z,52.49
2022-08-09T09:13:56.694Z,55.10
2022-08-09T09:16:30.787Z,52.19
2022-08-09T09:22:05.124Z,50.60
2022-08-09T09:24:38.206Z,51.45
2022-08-09T09:28:03.018Z,51.70
2022-08-09T09:30:09.281Z,52.07
2022-08-09T09:32:44.286Z,52.02
2022-08-09T09:35:15.979Z,50.37
2022-08-09T09:37:47.476Z,51.30
2022-08-09T09:40:17.754Z,52.19
2022-08-09T09:42:56.747Z,50.75
2022-08-09T09:45:25.916Z,51.60
2022-08-09T09:47:59.740Z,48.92
2022-08-09T09:50:50.631Z,49.61
2022-08-09T09:53:34.423Z,50.69
2022-08-09T09:56:31.077Z,49.90
2022-08-09T09:58:58.571Z,49.24
2022-08-09T10:01:37.359Z,50.58
2022-08-09T10:04:22.906Z,51.37
2022-08-09T10:07:03.296Z,52.55
2022-08-09T10:09:54.555Z,48.72
2022-08-09T10:12:31.270Z,50.92
2022-08-09T10:15:07.690Z,49.75
2022-08-09T10:17:55.119Z,52.35
2022-08-09T10:20:32.358Z,51.89
2022-08-09T10:23:16.927Z,51.46
2022-08-09T10:26:07.147Z,47.24
2022-08-09T10:28:35.351Z,46.79
2022-08-09T10:34:08.729Z,45.38
2022-08-09T10:36:45.177Z,44.96
2022-08-09T10:39:15.768Z,44.83
2022-08-09T10:41:47.806Z,46.22
2022-08-09T10:44:19.162Z,45.78
2022-08-09T10:48:16.615Z,43.18
2022-08-09T10:50:49.372Z,43.14
2022-08-09T10:53:46.821Z,44.41
2022-08-09T10:56:24.427Z,45.99
2022-08-09T10:58:54.527Z,43.35
2022-08-09T11:03:14.670Z,42.57
2022-08-09T11:04:32.631Z,42.13
2022-08-09T11:07:27.758Z,38.97
2022-08-09T11:10:17.600Z,40.50
2022-08-09T11:13:51.217Z,41.48
2022-08-09T11:16:35.708Z,41.44
2022-08-09T11:19:07.866Z,41.53
2022-08-09T11:22:10.865Z,41.54
2022-08-09T11:25:09.768Z,41.54
2022-08-09T11:28:04.430Z,43.27
2022-08-09T11:30:35.907Z,40.97
2022-08-09T11:33:05.954Z,41.14
2022-08-09T11:35:49.039Z,41.22
2022-08-09T11:38:22.234Z,39.43
2022-08-09T11:40:52.833Z,39.12
2022-08-09T11:43:42.898Z,39.16
2022-08-09T11:46:11.504Z,39.56
2022-08-09T11:48:51.193Z,38.80
2022-08-09T11:52:37.367Z,37.85
2022-08-09T11:54:27.843Z,37.49
2022-08-09T11:57:47.363Z,37.48
2022-08-09T12:00:32.619Z,38.37
2022-08-09T12:03:31.912Z,36.04
2022-08-09T12:05:57.765Z,37.07
2022-08-09T12:08:28.826Z,36.84
2022-08-09T12:11:00.366Z,36.72
2022-08-09T12:14:07.823Z,39.09
2022-08-09T12:16:37.531Z,38.70
2022-08-09T12:19:09.380Z,38.61
2022-08-09T12:21:50.325Z,38.12
2022-08-09T12:24:24.930Z,37.36
2022-08-09T12:29:11.259Z,37.54
2022-08-09T12:30:00.018Z,37.50
2022-08-09T12:32:35.248Z,37.50
2022-08-09T12:35:12.647Z,37.44
2022-08-09T12:37:44.327Z,38.12
2022-08-09T12:40:24.484Z,38.05
2022-08-09T12:42:53.169Z,39.28
2022-08-09T12:45:34.471Z,37.47
2022-08-09T12:48:20.148Z,39.47
2022-08-09T12:50:59.425Z,39.35
2022-08-09T12:53:37.610Z,40.67
2022-08-09T12:56:39.549Z,38.31
2022-08-09T12:59:10.522Z,39.10
2022-08-09T13:01:46.919Z,39.69
2022-08-09T13:04:36.557Z,37.74
2022-08-09T13:07:13.533Z,36.46
2022-08-09T13:09:43.412Z,36.54
2022-08-09T13:12:22.209Z,36.55
2022-08-09T13:14:54.210Z,37.54
2022-08-09T13:18:02.820Z,38.12
2022-08-09T13:20:18.859Z,39.38
2022-08-09T13:23:02.167Z,38.84
2022-08-09T13:25:42.503Z,39.37
2022-08-09T13:28:14.055Z,39.76
2022-08-09T13:32:13.513Z,39.49
2022-08-09T13:33:54.495Z,39.80
2022-08-09T13:36:42.454Z,39.30
2022-08-09T13:41:17.567Z,39.12
2022-08-09T13:42:02.913Z,40.77
2022-08-09T13:44:32.350Z,38.34
2022-08-09T13:47:26.686Z,41.08
2022-08-09T13:49:56.522Z,40.64
2022-08-09T13:52:30.903Z,41.22
2022-08-09T13:55:04.761Z,40.99
2022-08-09T13:57:39.602Z,40.45
2022-08-09T14:00:12.851Z,42.26
2022-08-09T14:03:04.330Z,41.50
2022-08-09T14:05:57.102Z,41.28
2022-08-09T14:08:21.647Z,41.21
2022-08-09T14:10:52.867Z,40.71
2022-08-09T14:14:15.745Z,41.33
2022-08-09T14:16:14.662Z,41.00
2022-08-09T14:18:45.758Z,41.46
2022-08-09T14:21:18.889Z,41.51
2022-08-09T14:23:54.759Z,40.08
2022-08-09T14:26:32.795Z,43.20
2022-08-09T14:29:08.319Z,42.19
2022-08-09T14:31:54.045Z,41.05
2022-08-09T14:34:30.726Z,40.06
2022-08-09T14:37:01.917Z,40.77
2022-08-09T14:39:45.134Z,41.00
2022-08-09T14:42:32.026Z,39.95
2022-08-09T14:46:51.206Z,41.29
2022-08-09T14:47:58.337Z,40.04
2022-08-09T14:50:28.748Z,41.98
2022-08-09T14:52:57.619Z,39.44
2022-08-09T14:55:29.194Z,40.21
2022-08-09T14:58:02.942Z,41.73
2022-08-09T15:00:33.200Z,41.56
2022-08-09T15:03:03.748Z,41.40
2022-08-09T15:05:34.574Z,39.78
2022-08-09T15:08:05.758Z,38.40
2022-08-09T15:10:36.615Z,37.28
2022-08-09T15:13:08.686Z,40.28
2022-08-09T15:15:39.479Z,38.99
2022-08-09T15:18:14.224Z,39.51
2022-08-09T15:21:56.204Z,40.07
2022-08-09T15:24:03.724Z,39.73
2022-08-09T15:26:30.755Z,41.36
2022-08-09T15:29:04.388Z,41.37
2022-08-09T15:31:41.303Z,43.00
2022-08-09T15:34:32.933Z,43.53
2022-08-09T15:37:01.032Z,42.64
2022-08-09T15:39:48.740Z,42.55
2022-08-09T15:42:22.459Z,42.26
2022-08-09T15:44:51.297Z,41.08
2022-08-09T15:47:22.324Z,39.40
2022-08-09T15:50:04.012Z,40.45
2022-08-09T15:52:34.891Z,41.02
2022-08-09T15:55:04.005Z,41.92
2022-08-09T15:57:50.777Z,42.61
2022-08-09T16:00:25.703Z,42.27
2022-08-09T16:02:56.798Z,44.09
2022-08-09T16:05:47.794Z,43.36
2022-08-09T16:08:29.815Z,44.18
2022-08-09T16:10:59.643Z,44.06
2022-08-09T16:14:03.053Z,44.77
2022-08-09T16:16:18.834Z,45.73
2022-08-09T16:18:47.277Z,47.74
2022-08-09T16:21:16.888Z,46.59
2022-08-09T16:23:54.613Z,46.34
2022-08-09T16:26:34.966Z,45.29
2022-08-09T16:29:10.546Z,45.54
2022-08-09T16:32:18.468Z,42.88
2022-08-09T16:34:29.016Z,44.49
2022-08-09T16:36:57.551Z,44.18
2022-08-09T16:39:26.881Z,43.98
2022-08-09T16:42:02.915Z,43.48
2022-08-09T16:44:35.259Z,43.97
2022-08-09T16:48:40.922Z,44.72
2022-08-09T16:50:33.225Z,44.26
2022-08-09T16:52:40.208Z,44.25
2022-08-09T16:55:15.746Z,43.10
2022-08-09T16:58:10.205Z,44.31
2022-08-09T17:00:36.271Z,43.35
2022-08-09T17:03:07.028Z,43.30
2022-08-09T17:06:07.239Z,41.01
2022-08-09T17:08:43.016Z,44.69
2022-08-09T17:11:16.262Z,47.44
2022-08-09T17:13:45.195Z,49.88
2022-08-09T17:16:15.032Z,52.84
2022-08-09T17:18:45.238Z,54.13
2022-08-09T17:21:13.515Z,55.75
2022-08-09T17:24:27.783Z,58.50
2022-08-09T17:26:38.002Z,61.84
2022-08-09T17:29:20.066Z,62.57
2022-08-09T17:31:49.964Z,64.26
2022-08-09T17:34:59.800Z,66.20
2022-08-09T17:37:07.275Z,67.12
2022-08-09T17:39:48.559Z,66.96
2022-08-09T17:42:41.811Z,67.60
2022-08-09T17:45:16.128Z,68.92
2022-08-09T17:48:02.861Z,69.56
2022-08-09T17:50:37.080Z,70.35
2022-08-09T17:53:19.365Z,68.69
2022-08-09T17:55:55.688Z,68.85
2022-08-09T17:58:27.474Z,68.93
2022-08-09T18:00:56.506Z,69.38
2022-08-09T18:03:32.737Z,69.72
2022-08-09T18:06:01.920Z,70.05
2022-08-09T18:08:30.939Z,70.37
2022-08-09T18:11:05.396Z,69.31
2022-08-09T18:13:38.746Z,70.75
2022-08-09T18:16:09.605Z,70.96
2022-08-09T18:18:43.310Z,71.57
2022-08-09T18:21:23.662Z,70.63
2022-08-09T18:24:10.376Z,72.53
2022-08-09T18:26:46.941Z,71.67
2022-08-09T18:30:40.545Z,71.70
2022-08-09T18:32:05.629Z,71.82
2022-08-09T18:34:36.518Z,72.29
2022-08-09T18:37:05.775Z,72.85
2022-08-09T18:39:45.501Z,72.84
2022-08-09T18:42:17.468Z,72.53
2022-08-09T18:44:45.890Z,72.46
2022-08-09T18:47:16.574Z,72.87
2022-08-09T18:49:47.789Z,74.36
2022-08-09T18:52:28.583Z,76.05
2022-08-09T18:55:03.852Z,75.95
2022-08-09T18:57:38.512Z,76.02
2022-08-09T19:00:20.117Z,77.63
2022-08-09T19:02:51.014Z,79.22
2022-08-09T19:05:41.349Z,79.03
2022-08-09T19:08:19.680Z,79.22
2022-08-09T19:10:49.090Z,79.21
2022-08-09T19:13:23.320Z,79.94
2022-08-09T19:16:07.550Z,79.74
2022-08-09T19:18:41.078Z,80.35
2022-08-09T19:21:14.586Z,80.23
2022-08-09T19:24:36.304Z,80.80
2022-08-09T19:26:35.172Z,82.56
2022-08-09T19:29:09.778Z,82.78
2022-08-09T19:31:51.333Z,82.92
2022-08-09T19:34:22.473Z,82.72
2022-08-09T19:36:54.981Z,82.69
2022-08-09T19:39:44.015Z,82.44
2022-08-09T19:42:14.676Z,81.16
2022-08-09T19:44:44.093Z,81.15
2022-08-09T19:47:20.470Z,81.19
2022-08-09T19:50:06.828Z,81.30
2022-08-09T19:52:49.293Z,81.52
2022-08-09T19:55:30.804Z,81.05
2022-08-09T19:58:16.408Z,80.80
2022-08-09T20:00:46.753Z,81.03
2022-08-09T20:04:11.080Z,81.28
2022-08-09T20:06:10.383Z,81.23
2022-08-09T20:08:56.803Z,82.04
2022-08-09T20:11:45.363Z,82.05
2022-08-09T20:14:21.803Z,82.18
2022-08-09T20:16:54.381Z,82.27
2022-08-09T20:19:49.360Z,82.05
2022-08-09T20:22:13.921Z,82.38
2022-08-09T20:24:54.175Z,82.24
2022-08-09T20:27:22.894Z,81.25
2022-08-09T20:29:51.532Z,81.14
2022-08-09T20:32:29.831Z,82.01
2022-08-09T20:35:09.339Z,82.25
2022-08-09T20:38:23.777Z,83.51
2022-08-09T20:40:28.885Z,85.29
2022-08-09T20:43:00.077Z,85.27
2022-08-09T20:46:02.092Z,85.13
2022-08-09T20:48:32.189Z,85.34
2022-08-09T20:51:01.283Z,86.24
2022-08-09T20:53:37.653Z,86.47
2022-08-09T20:56:20.410Z,88.17
2022-08-09T20:58:57.898Z,88.92
2022-08-09T21:01:35.050Z,88.05
2022-08-09T21:05:51.412Z,88.22
2022-08-09T21:07:12.619Z,87.67
2022-08-09T21:09:56.519Z,87.64
2022-08-09T21:15:23.754Z,88.48
2022-08-09T21:18:21.861Z,88.87
2022-08-09T21:20:54.206Z,88.86
2022-08-09T21:23:26.604Z,89.51
2022-08-09T21:26:11.699Z,88.77
2022-08-09T21:28:51.786Z,88.80
2022-08-09T21:31:48.519Z,88.07
2022-08-09T21:34:13.293Z,88.53
2022-08-09T21:36:55.396Z,88.32
2022-08-09T21:39:27.915Z,88.95
2022-08-09T21:42:11.393Z,89.11
2022-08-09T21:44:42.859Z,88.96
2022-08-09T21:47:17.447Z,89.30
2022-08-09T21:49:48.097Z,89.17
2022-08-09T21:52:20.517Z,89.67
2022-08-09T21:55:02.945Z,89.63
2022-08-09T21:57:38.641Z,91.00
2022-08-09T22:00:26.730Z,90.25
2022-08-09T22:03:01.938Z,90.54
2022-08-09T22:05:36.726Z,89.90
2022-08-09T22:08:12.973Z,89.92
2022-08-09T22:11:49.497Z,90.57
2022-08-09T22:13:34.564Z,90.71
2022-08-09T22:16:07.655Z,90.24
2022-08-09T22:18:37.717Z,90.37
2022-08-09T22:21:09.993Z,91.45
2022-08-09T22:23:58.976Z,92.12
2022-08-09T22:26:35.119Z,92.54
2022-08-09T22:29:08.727Z,91.85
2022-08-09T22:31:44.559Z,92.20
2022-08-09T22:34:25.822Z,92.77
2022-08-09T22:36:54.794Z,92.71
2022-08-09T22:39:56.431Z,91.93
2022-08-09T22:42:20.828Z,92.05
2022-08-09T22:45:11.543Z,91.86
2022-08-09T22:48:14.555Z,91.00
2022-08-09T22:50:29.760Z,90.54
2022-08-09T22:52:58.782Z,90.65
2022-08-09T22:55:33.663Z,91.01
2022-08-09T22:58:30.575Z,91.26
2022-08-09T23:01:00.965Z,90.94
2022-08-09T23:04:03.420Z,91.30
2022-08-09T23:06:35.841Z,90.83
2022-08-09T23:09:05.290Z,90.10
2022-08-09T23:11:33.588Z,88.82
2022-08-09T23:14:03.199Z,88.04
2022-08-09T23:16:31.714Z,88.78
2022-08-09T23:19:01.604Z,88.35
2022-08-09T23:21:33.490Z,89.30
2022-08-09T23:24:06.155Z,89.52
2022-08-09T23:26:35.066Z,89.01
2022-08-09T23:29:03.216Z,90.71
2022-08-09T23:31:31.350Z,90.88
2022-08-09T23:34:02.365Z,91.61
2022-08-09T23:36:31.067Z,91.53
2022-08-09T23:38:59.223Z,92.74
2022-08-09T23:41:29.468Z,93.51
2022-08-09T23:43:59.547Z,93.58
2022-08-09T23:46:28.147Z,93.19
2022-08-09T23:48:56.565Z,93.06
2022-08-09T23:51:26.364Z,93.35
2022-08-09T23:54:02.938Z,93.48
2022-08-09T23:56:52.833Z,94.14
2022-08-09T23:59:20.903Z,93.69
